^^
MeteoGriva-Weather Station Historical Data
Daily Summary for May 27, 2020 Units:  Metric    English   Both
Daily Weekly Monthly Yearly Custom
  High: Low: Average:
Temperature: 15.2 °C 7.7 °C 10.8 °C
Dew Point: 6.2 °C 2.5 °C 4.2 °C
Humidity: 72.8% 52.8% 64%
Wind Speed: 1.3km/h 0km/h 0.1km/h
Wind Gust: 12.2km/h - -
Wind- - SE
Pressure: 1022.4 hPa 1018.6 hPa -
Precipitation: 0.0 mm    
Historical Graphs
 
 
Tabular Data for May 27, 2020
Time Temperature Dew Point Pressure Wind Wind Speed Wind Gust Humidity Rainfall Rate (Hourly) solar
00:04 8.6 °C 3 °C 1022.4 hPa Calm     68% 0.0 mm 0 W/m2
00:09 8.9 °C 3.3 °C 1022.4 hPa Calm     68% 0.0 mm 0 W/m2
00:14 9.2 °C 3.7 °C 1022.4 hPa Calm     68.7% 0.0 mm 0 W/m2
00:19 9.2 °C 3.7 °C 1022.4 hPa Calm     68.4% 0.0 mm 0 W/m2
00:24 9.1 °C 3.7 °C 1022.4 hPa Calm     68.9% 0.0 mm 0 W/m2
00:29 9 °C 3.3 °C 1022.4 hPa Calm     67.4% 0.0 mm 0 W/m2
00:34 8.7 °C 3 °C 1022.4 hPa Calm     67.3% 0.0 mm 0 W/m2
00:39 8.7 °C 3 °C 1022.0 hPa Calm     67.7% 0.0 mm 0 W/m2
00:44 8.7 °C 3.1 °C 1022.0 hPa Calm     68% 0.0 mm 0 W/m2
00:49 8.8 °C 3.3 °C 1022.0 hPa Calm     68.6% 0.0 mm 0 W/m2
00:54 8.8 °C 3.3 °C 1022.0 hPa Calm     68.4% 0.0 mm 0 W/m2
00:59 8.8 °C 3.2 °C 1022.0 hPa Calm     68% 0.0 mm 0 W/m2
01:04 8.8 °C 3.1 °C 1022.0 hPa Calm     67.4% 0.0 mm 0 W/m2
01:09 8.9 °C 2.9 °C 1022.0 hPa Calm     66.1% 0.0 mm 0 W/m2
01:14 9 °C 3.3 °C 1022.0 hPa Calm     67.4% 0.0 mm 0 W/m2
01:19 9 °C 3.6 °C 1022.0 hPa Calm     69% 0.0 mm 0 W/m2
01:24 8.9 °C 3.7 °C 1022.0 hPa Calm     69.9% 0.0 mm 0 W/m2
01:29 8.8 °C 3.4 °C 1022.0 hPa Calm     68.9% 0.0 mm 0 W/m2
01:34 8.7 °C 2.9 °C 1021.7 hPa Calm     67.3% 0.0 mm 0 W/m2
01:39 8.6 °C 2.7 °C 1021.7 hPa Calm     66.4% 0.0 mm 0 W/m2
01:44 8.6 °C 2.5 °C 1021.7 hPa Calm     65.6% 0.0 mm 0 W/m2
01:49 8.7 °C 2.8 °C 1022.0 hPa Calm     66.6% 0.0 mm 0 W/m2
01:54 8.5 °C 3 °C 1021.7 hPa Calm     68.7% 0.0 mm 0 W/m2
01:59 8.5 °C 3.1 °C 1021.7 hPa Calm     69.1% 0.0 mm 0 W/m2
02:04 8.5 °C 3.1 °C 1022.0 hPa Calm     69.2% 0.0 mm 0 W/m2
02:09 8.5 °C 2.8 °C 1022.0 hPa Calm     67.2% 0.0 mm 0 W/m2
02:14 8.6 °C 3 °C 1022.0 hPa Calm     68.1% 0.0 mm 0 W/m2
02:19 8.6 °C 3.2 °C 1022.0 hPa Calm     69.1% 0.0 mm 0 W/m2
02:24 8.5 °C 3.3 °C 1022.0 hPa Calm     69.9% 0.0 mm 0 W/m2
02:29 8.5 °C 3.4 °C 1022.0 hPa Calm     70.6% 0.0 mm 0 W/m2
02:34 8.4 °C 3.4 °C 1022.0 hPa Calm     70.8% 0.0 mm 0 W/m2
02:39 8.4 °C 3 °C 1021.7 hPa Calm     69.2% 0.0 mm 0 W/m2
02:44 8.4 °C 3 °C 1021.7 hPa Calm     69.2% 0.0 mm 0 W/m2
02:49 8.5 °C 2.8 °C 1021.7 hPa Calm     67.9% 0.0 mm 0 W/m2
02:54 8.7 °C 3.2 °C 1021.7 hPa Calm     68.3% 0.0 mm 0 W/m2
02:59 8.7 °C 3.4 °C 1021.7 hPa Calm     69.4% 0.0 mm 0 W/m2
03:04 8.7 °C 3.6 °C 1021.7 hPa Calm     70.6% 0.0 mm 0 W/m2
03:09 8.7 °C 3.7 °C 1021.7 hPa Calm     71% 0.0 mm 0 W/m2
03:14 8.3 °C 3.7 °C 1021.7 hPa Calm     72.8% 0.0 mm 0 W/m2
03:19 8.3 °C 3.4 °C 1021.7 hPa Calm     71.2% 0.0 mm 0 W/m2
03:24 8.4 °C 3 °C 1021.7 hPa Calm     69% 0.0 mm 0 W/m2
03:29 8.5 °C 3 °C 1021.7 hPa Calm     68.1% 0.0 mm 0 W/m2
03:34 8.7 °C 3.4 °C 1021.7 hPa Calm     69.3% 0.0 mm 0 W/m2
03:39 8.7 °C 3.4 °C 1021.7 hPa Calm     69.4% 0.0 mm 0 W/m2
03:44 8.7 °C 3.4 °C 1021.3 hPa Calm     69.6% 0.0 mm 0 W/m2
03:49 8.7 °C 3.3 °C 1021.7 hPa Calm     69.2% 0.0 mm 0 W/m2
03:54 8.6 °C 3.2 °C 1021.3 hPa Calm     69% 0.0 mm 0 W/m2
03:59 8.6 °C 3.2 °C 1021.3 hPa Calm     69% 0.0 mm 0 W/m2
04:04 8.7 °C 3.4 °C 1021.3 hPa Calm     69.7% 0.0 mm 0 W/m2
04:09 8.7 °C 3.5 °C 1021.3 hPa Calm     69.9% 0.0 mm 0 W/m2
04:14 8.8 °C 3.4 °C 1021.3 hPa Calm     69% 0.0 mm 0 W/m2
04:19 8.7 °C 3.4 °C 1021.3 hPa Calm     69.7% 0.0 mm 0 W/m2
04:24 8.7 °C 3.4 °C 1021.3 hPa Calm     69.4% 0.0 mm 0 W/m2
04:29 8.6 °C 3.3 °C 1021.3 hPa Calm     69.6% 0.0 mm 0 W/m2
04:34 8.3 °C 3.2 °C 1021.3 hPa Calm     70.2% 0.0 mm 0 W/m2
04:39 8.3 °C 3.3 °C 1021.3 hPa Calm     70.3% 0.0 mm 0 W/m2
04:44 8.4 °C 3.3 °C 1021.3 hPa Calm     70.4% 0.0 mm 0 W/m2
04:49 8.4 °C 3.5 °C 1021.3 hPa Calm     71.7% 0.0 mm 0 W/m2
04:54 8.2 °C 3.5 °C 1021.3 hPa Calm     72% 0.0 mm 0 W/m2
04:59 8.1 °C 3.4 °C 1021.3 hPa Calm     72% 0.0 mm 0 W/m2
05:04 8.2 °C 3.3 °C 1021.3 hPa Calm     71% 0.0 mm 0 W/m2
05:09 8.2 °C 3.1 °C 1021.3 hPa Calm     70.1% 0.0 mm 0 W/m2
05:14 8.4 °C 3.2 °C 1021.3 hPa Calm     70.1% 0.0 mm 0 W/m2
05:19 8.4 °C 3.2 °C 1021.3 hPa Calm     70% 0.0 mm 0 W/m2
05:24 8.4 °C 3.2 °C 1021.0 hPa Calm     70% 0.0 mm 0 W/m2
05:29 8.4 °C 3.4 °C 1021.3 hPa Calm     71% 0.0 mm 0 W/m2
05:34 8.3 °C 3.3 °C 1021.3 hPa Calm     71% 0.0 mm 0 W/m2
05:39 8.1 °C 3.3 °C 1021.3 hPa Calm     71.6% 0.0 mm 0 W/m2
05:44 8.1 °C 3.3 °C 1021.3 hPa Calm     71.7% 0.0 mm 0 W/m2
05:49 8.1 °C 3.2 °C 1021.3 hPa Calm     71% 0.0 mm 0 W/m2
05:54 8.4 °C 3.2 °C 1021.3 hPa Calm     70% 0.0 mm 0 W/m2
05:59 8.4 °C 3.3 °C 1021.0 hPa Calm     70.6% 0.0 mm 0 W/m2
06:04 8.3 °C 3.4 °C 1021.0 hPa Calm     71.2% 0.0 mm 0 W/m2
06:09 8.2 °C 3.4 °C 1021.3 hPa Calm     71.2% 0.0 mm 0 W/m2
06:14 8.3 °C 3.2 °C 1021.3 hPa Calm     70.4% 0.0 mm 0 W/m2
06:19 8.3 °C 3.2 °C 1021.0 hPa Calm     70.4% 0.0 mm 0 W/m2
06:24 8.2 °C 3.2 °C 1021.0 hPa Calm     70.3% 0.0 mm 0 W/m2
06:29 8.2 °C 3.2 °C 1021.3 hPa Calm     70.8% 0.0 mm 0 W/m2
06:34 7.9 °C 3.3 °C 1021.3 hPa Calm     72.4% 0.0 mm 0 W/m2
06:39 7.7 °C 3 °C 1021.3 hPa Calm     71.8% 0.0 mm 0 W/m2
06:44 7.8 °C 2.9 °C 1021.3 hPa Calm     71% 0.0 mm 0 W/m2
06:49 7.9 °C 2.9 °C 1021.3 hPa Calm     70.4% 0.0 mm 0 W/m2
06:54 8.2 °C 3.2 °C 1021.3 hPa Calm     70.4% 0.0 mm 0 W/m2
06:59 8.3 °C 3.5 °C 1021.3 hPa Calm     71.8% 0.0 mm 0 W/m2
07:04 8.2 °C 3.3 °C 1021.3 hPa Calm     71% 0.0 mm 0 W/m2
07:09 8.1 °C 2.8 °C 1021.3 hPa Calm     69.3% 0.0 mm 0 W/m2
07:14 8.1 °C 2.9 °C 1021.7 hPa Calm     69.3% 0.0 mm 0 W/m2
07:19 8.1 °C 2.8 °C 1021.7 hPa Calm     69.1% 0.0 mm 0 W/m2
07:24 8.2 °C 2.8 °C 1021.7 hPa Calm     68.9% 0.0 mm 0 W/m2
07:29 8.2 °C 2.8 °C 1021.3 hPa Calm     68.9% 0.0 mm 0 W/m2
07:34 8.1 °C 3 °C 1021.3 hPa Calm     70% 0.0 mm 2 W/m2
07:39 8 °C 2.9 °C 1021.3 hPa Calm     70% 0.0 mm 5 W/m2
07:44 8 °C 2.8 °C 1021.3 hPa Calm     69.6% 0.0 mm 10 W/m2
07:49 8.1 °C 2.8 °C 1021.3 hPa Calm     69% 0.0 mm 16 W/m2
07:54 8.6 °C 3 °C 1021.3 hPa Calm     68.1% 0.0 mm 21 W/m2
07:59 8.8 °C 3.2 °C 1021.7 hPa Calm     67.8% 0.0 mm 26 W/m2
08:04 8.9 °C 3 °C 1022.0 hPa Calm     66.8% 0.0 mm 31 W/m2
08:09 9 °C 3 °C 1022.0 hPa Calm     66% 0.0 mm 36 W/m2
08:14 10.2 °C 3.9 °C 1022.0 hPa Calm     64.9% 0.0 mm 40 W/m2
08:19 10.9 °C 4.6 °C 1022.0 hPa Calm     64.7% 0.0 mm 44 W/m2
08:24 10.8 °C 4.5 °C 1022.0 hPa Calm     64.9% 0.0 mm 47 W/m2
08:29 10.7 °C 4.3 °C 1022.0 hPa Calm     64.6% 0.0 mm 51 W/m2
08:34 11.4 °C 4.3 °C 1022.0 hPa Calm     62.1% 0.0 mm 55 W/m2
08:39 11.9 °C 4.3 °C 1022.0 hPa Calm     59.6% 0.0 mm 59 W/m2
08:44 12.1 °C 4.3 °C 1022.0 hPa Calm     59.3% 0.0 mm 62 W/m2
08:49 12.2 °C 4.3 °C 1022.0 hPa Calm     58.4% 0.0 mm 64 W/m2
08:54 11.7 °C 4.6 °C 1021.7 hPa Calm     61.6% 0.0 mm 67 W/m2
08:59 11.1 °C 4 °C 1022.0 hPa Calm     61.7% 0.0 mm 69 W/m2
09:04 11.1 °C 3.9 °C 1022.0 hPa Calm     61% 0.0 mm 70 W/m2
09:09 11.2 °C 4.1 °C 1022.0 hPa Calm     61.4% 0.0 mm 73 W/m2
09:14 11.4 °C 4.1 °C 1022.0 hPa Calm     60.7% 0.0 mm 75 W/m2
09:19 11.5 °C 4.5 °C 1022.0 hPa Calm     62% 0.0 mm 76 W/m2
09:24 11.5 °C 4.5 °C 1022.0 hPa Calm     62% 0.0 mm 77 W/m2
09:29 11.5 °C 4.5 °C 1022.0 hPa Calm     61.9% 0.0 mm 77 W/m2
09:34 11.5 °C 3.9 °C 1022.0 hPa Calm     59.6% 0.0 mm 79 W/m2
09:39 11.5 °C 4 °C 1022.0 hPa Calm     59.8% 0.0 mm 80 W/m2
09:44 11.5 °C 4 °C 1022.0 hPa Calm     59.8% 0.0 mm 80 W/m2
09:49 11.6 °C 3.9 °C 1022.0 hPa Calm     58.9% 0.0 mm 81 W/m2
09:54 11.9 °C 4 °C 1022.0 hPa Calm     58.7% 0.0 mm 82 W/m2
09:59 12.1 °C 4.4 °C 1022.4 hPa Calm     59.2% 0.0 mm 82 W/m2
10:04 12.3 °C 4.2 °C 1022.0 hPa Calm     57.8% 0.0 mm 82 W/m2
10:09 12.5 °C 4.4 °C 1022.0 hPa Calm     57.8% 0.0 mm 83 W/m2
10:14 12.7 °C 4.9 °C 1022.0 hPa Calm     59% 0.0 mm 83 W/m2
10:19 12.7 °C 4.9 °C 1022.0 hPa Calm     58.8% 0.0 mm 83 W/m2
10:24 12.8 °C 5.1 °C 1022.0 hPa Calm     59.3% 0.0 mm 84 W/m2
10:29 12.9 °C 4.9 °C 1022.0 hPa Calm     58.4% 0.0 mm 85 W/m2
10:34 13.2 °C 5.2 °C 1022.0 hPa Calm     58.4% 0.0 mm 87 W/m2
10:39 13.6 °C 5.7 °C 1022.0 hPa Calm     58.7% 0.0 mm 89 W/m2
10:44 13.5 °C 5.7 °C 1022.0 hPa Calm     59.2% 0.0 mm 91 W/m2
10:49 13.6 °C 5.6 °C 1021.7 hPa SE 0.3 km/h 4 km/h 58.4% 0.0 mm 94 W/m2
10:54 13.8 °C 5.9 °C 1021.7 hPa Calm   4 km/h 58.9% 0.0 mm 97 W/m2
10:59 14.4 °C 6.1 °C 1021.7 hPa Calm     57.7% 0.0 mm 100 W/m2
11:04 14.4 °C 6.1 °C 1021.7 hPa SE 0.1 km/h 4 km/h 57.3% 0.0 mm 104 W/m2
11:09 14.4 °C 6 °C 1021.7 hPa Calm   4 km/h 57.1% 0.0 mm 108 W/m2
11:14 14.5 °C 6.1 °C 1021.7 hPa SSE 0.2 km/h 4 km/h 57% 0.0 mm 112 W/m2
11:19 14.5 °C 6.1 °C 1021.3 hPa Calm   4 km/h 57.2% 0.0 mm 116 W/m2
11:24 14.5 °C 6.2 °C 1021.3 hPa Calm   7.9 km/h 57.4% 0.0 mm 119 W/m2
11:29 14.5 °C 6.2 °C 1021.3 hPa SSE 0.7 km/h 4 km/h 57.8% 0.0 mm 109 W/m2
11:34 14.4 °C 6 °C 1021.0 hPa SSE 0.5 km/h 4 km/h 56.8% 0.0 mm 85 W/m2
11:39 14.2 °C 5.7 °C 1021.0 hPa South 0.3 km/h 4 km/h 56.9% 0.0 mm 83 W/m2
11:44 14.2 °C 5.7 °C 1021.0 hPa South 0.3 km/h 4 km/h 56.6% 0.0 mm 82 W/m2
11:49 14.3 °C 5.5 °C 1021.0 hPa Calm     55.9% 0.0 mm 82 W/m2
11:54 14.4 °C 5.7 °C 1021.0 hPa Calm   4 km/h 56% 0.0 mm 91 W/m2
11:59 14.7 °C 5.9 °C 1020.7 hPa Calm   4 km/h 55.6% 0.0 mm 146 W/m2
12:04 14.7 °C 6 °C 1020.7 hPa SE 0.5 km/h 7.9 km/h 55.8% 0.0 mm 171 W/m2
12:09 14.7 °C 6 °C 1020.7 hPa SSE 1 km/h 7.9 km/h 56% 0.0 mm 179 W/m2
12:14 14.7 °C 6 °C 1020.7 hPa SSE 0.5 km/h 7.9 km/h 56% 0.0 mm 189 W/m2
12:19 14.8 °C 6 °C 1020.3 hPa SE 1.1 km/h 7.9 km/h 55.8% 0.0 mm 200 W/m2
12:24 14.8 °C 6.1 °C 1020.7 hPa Calm   7.9 km/h 56% 0.0 mm 210 W/m2
12:29 14.8 °C 5.8 °C 1020.3 hPa SSW 0.5 km/h 7.9 km/h 55% 0.0 mm 224 W/m2
12:34 14.6 °C 6.1 °C 1020.3 hPa ESE 0.6 km/h 7.9 km/h 56.6% 0.0 mm 234 W/m2
12:39 13.7 °C 5.3 °C 1020.3 hPa East 0.8 km/h 7.9 km/h 57% 0.0 mm 243 W/m2
12:44 13.7 °C 5.3 °C 1020.3 hPa Calm     57% 0.0 mm 256 W/m2
12:49 13.7 °C 5.2 °C 1020.0 hPa SSE 0.7 km/h 7.9 km/h 56.2% 0.0 mm 268 W/m2
12:54 13.8 °C 5.2 °C 1020.0 hPa SE 0.3 km/h 4 km/h 56% 0.0 mm 280 W/m2
12:59 14.2 °C 5.7 °C 1020.0 hPa East 0.6 km/h 7.9 km/h 56.6% 0.0 mm 287 W/m2
13:04 14.2 °C 5.6 °C 1019.6 hPa ESE 0.6 km/h 7.9 km/h 56.5% 0.0 mm 296 W/m2
13:09 14.2 °C 5.5 °C 1019.6 hPa South 0.1 km/h 7.9 km/h 56% 0.0 mm 303 W/m2
13:14 14.2 °C 5.4 °C 1019.6 hPa South 1.3 km/h 7.9 km/h 55.7% 0.0 mm 309 W/m2
13:19 15.2 °C 6.2 °C 1019.6 hPa SSE 0.1 km/h 4 km/h 55% 0.0 mm 314 W/m2
13:24 15.2 °C 6.1 °C 1019.6 hPa ESE 0.2 km/h 4 km/h 54.6% 0.0 mm 318 W/m2
13:29 15.2 °C 6 °C 1019.6 hPa Calm   4 km/h 54% 0.0 mm 321 W/m2
13:34 15.2 °C 5.9 °C 1019.6 hPa SE 0.2 km/h 4 km/h 53.7% 0.0 mm 322 W/m2
13:39 15.2 °C 6 °C 1019.3 hPa ESE 0.6 km/h 7.9 km/h 53.9% 0.0 mm 322 W/m2
13:44 15.2 °C 6.1 °C 1019.3 hPa SSE 0.8 km/h 7.9 km/h 54.6% 0.0 mm 323 W/m2
13:49 15.2 °C 5.9 °C 1019.3 hPa SE 0.3 km/h 7.9 km/h 53.6% 0.0 mm 322 W/m2
13:54 15.1 °C 6.1 °C 1019.3 hPa ESE 0.4 km/h 7.9 km/h 54.8% 0.0 mm 321 W/m2
13:58 14.7 °C 5.7 °C 1019.0 hPa SE 0.9 km/h 7.9 km/h 54.6% 0.0 mm 317 W/m2
14:04 14.7 °C 5.6 °C 1019.0 hPa Calm   7.9 km/h 54.4% 0.0 mm 316 W/m2
14:09 14.8 °C 5.3 °C 1019.0 hPa South 0.2 km/h 12.2 km/h 53.2% 0.0 mm 313 W/m2
14:14 14.9 °C 5.4 °C 1019.0 hPa SSE 0.5 km/h 7.9 km/h 53% 0.0 mm 313 W/m2
14:19 15.2 °C 5.7 °C 1019.0 hPa Calm   7.9 km/h 53% 0.0 mm 308 W/m2
14:24 15.2 °C 6 °C 1019.0 hPa Calm     54.2% 0.0 mm 303 W/m2
14:29 15.1 °C 5.9 °C 1019.0 hPa SE 0.1 km/h 4 km/h 54% 0.0 mm 299 W/m2
14:34 15 °C 5.6 °C 1018.6 hPa Calm   4 km/h 53.4% 0.0 mm 279 W/m2
14:39 14.6 °C 5.3 °C 1019.0 hPa Calm     53.9% 0.0 mm 288 W/m2
14:44 14.5 °C 5.5 °C 1018.6 hPa Calm     54.6% 0.0 mm 284 W/m2
14:49 14.6 °C 5.4 °C 1018.6 hPa Calm     54.1% 0.0 mm 282 W/m2
14:54 14.6 °C 5.6 °C 1018.6 hPa Calm     54.5% 0.0 mm 277 W/m2
14:59 14.7 °C 5.5 °C 1018.6 hPa Calm     54.2% 0.0 mm 272 W/m2
15:02 14.8 °C 5.2 °C 1018.6 hPa Calm     52.8% 0.0 mm 271 W/m2
Juneau County Weather
Compliments of Weather Underground - 2 mb